sensor_id;sensor_type;location;lat;lon;timestamp;temperature;humidity
12981;DHT22;6555;50.468;8.480;2023-02-01T00:02:52;7.00;65.30
12981;DHT22;6555;50.468;8.480;2023-02-01T00:08:23;6.90;65.30
12981;DHT22;6555;50.468;8.480;2023-02-01T00:13:41;7.00;65.40
12981;DHT22;6555;50.468;8.480;2023-02-01T00:19:14;7.00;65.30
12981;DHT22;6555;50.468;8.480;2023-02-01T00:24:32;7.00;65.40
12981;DHT22;6555;50.468;8.480;2023-02-01T00:30:03;7.10;65.40
12981;DHT22;6555;50.468;8.480;2023-02-01T00:35:20;7.10;65.50
12981;DHT22;6555;50.468;8.480;2023-02-01T00:40:52;7.20;65.40
12981;DHT22;6555;50.468;8.480;2023-02-01T00:46:10;7.20;65.50
12981;DHT22;6555;50.468;8.480;2023-02-01T00:51:40;7.20;65.30
12981;DHT22;6555;50.468;8.480;2023-02-01T00:56:57;7.20;65.40
12981;DHT22;6555;50.468;8.480;2023-02-01T01:02:28;7.30;65.40
12981;DHT22;6555;50.468;8.480;2023-02-01T01:07:44;7.30;65.40
12981;DHT22;6555;50.468;8.480;2023-02-01T01:13:15;7.30;65.30
12981;DHT22;6555;50.468;8.480;2023-02-01T01:18:33;7.40;65.50
12981;DHT22;6555;50.468;8.480;2023-02-01T01:24:04;7.40;65.40
12981;DHT22;6555;50.468;8.480;2023-02-01T01:29:22;7.40;65.50
12981;DHT22;6555;50.468;8.480;2023-02-01T01:34:53;7.40;65.60
12981;DHT22;6555;50.468;8.480;2023-02-01T01:40:10;7.50;65.70
12981;DHT22;6555;50.468;8.480;2023-02-01T01:45:43;7.40;65.50
12981;DHT22;6555;50.468;8.480;2023-02-01T01:51:02;7.50;65.70
12981;DHT22;6555;50.468;8.480;2023-02-01T01:56:34;7.50;65.60
12981;DHT22;6555;50.468;8.480;2023-02-01T02:01:52;7.50;65.70
12981;DHT22;6555;50.468;8.480;2023-02-01T02:07:25;7.50;65.60
12981;DHT22;6555;50.468;8.480;2023-02-01T02:12:44;7.50;65.50
12981;DHT22;6555;50.468;8.480;2023-02-01T02:18:23;7.50;65.50
12981;DHT22;6555;50.468;8.480;2023-02-01T02:24:03;7.50;65.60
12981;DHT22;6555;50.468;8.480;2023-02-01T02:29:50;7.50;65.60
12981;DHT22;6555;50.468;8.480;2023-02-01T02:35:16;7.50;65.50
12981;DHT22;6555;50.468;8.480;2023-02-01T02:40:57;7.50;65.40
12981;DHT22;6555;50.468;8.480;2023-02-01T02:46:22;7.60;65.50
12981;DHT22;6555;50.468;8.480;2023-02-01T02:52:15;7.60;65.50
12981;DHT22;6555;50.468;8.480;2023-02-01T02:57:52;7.60;65.40
12981;DHT22;6555;50.468;8.480;2023-02-01T03:03:40;7.60;65.30
12981;DHT22;6555;50.468;8.480;2023-02-01T03:09:19;7.50;65.20
12981;DHT22;6555;50.468;8.480;2023-02-01T03:14:54;7.50;65.10
12981;DHT22;6555;50.468;8.480;2023-02-01T03:20:13;7.60;64.90
12981;DHT22;6555;50.468;8.480;2023-02-01T03:25:48;7.60;64.90
12981;DHT22;6555;50.468;8.480;2023-02-01T03:31:07;7.60;64.70
12981;DHT22;6555;50.468;8.480;2023-02-01T03:36:34;7.60;64.60
12981;DHT22;6555;50.468;8.480;2023-02-01T03:42:10;7.60;64.60
12981;DHT22;6555;50.468;8.480;2023-02-01T03:47:32;7.50;64.40
12981;DHT22;6555;50.468;8.480;2023-02-01T03:53:07;7.50;64.40
12981;DHT22;6555;50.468;8.480;2023-02-01T03:58:25;7.50;64.20
12981;DHT22;6555;50.468;8.480;2023-02-01T04:03:56;7.50;64.10
12981;DHT22;6555;50.468;8.480;2023-02-01T04:09:14;7.50;64.00
12981;DHT22;6555;50.468;8.480;2023-02-01T04:14:45;7.50;64.00
12981;DHT22;6555;50.468;8.480;2023-02-01T04:20:02;7.50;64.00
12981;DHT22;6555;50.468;8.480;2023-02-01T04:25:32;7.50;64.00
12981;DHT22;6555;50.468;8.480;2023-02-01T04:30:49;7.60;64.60
12981;DHT22;6555;50.468;8.480;2023-02-01T04:36:20;7.50;64.00
12981;DHT22;6555;50.468;8.480;2023-02-01T04:41:37;7.50;63.90
12981;DHT22;6555;50.468;8.480;2023-02-01T04:47:08;7.60;63.90
12981;DHT22;6555;50.468;8.480;2023-02-01T04:52:25;7.60;63.90
12981;DHT22;6555;50.468;8.480;2023-02-01T04:57:55;7.60;63.80
12981;DHT22;6555;50.468;8.480;2023-02-01T05:03:12;7.60;63.80
12981;DHT22;6555;50.468;8.480;2023-02-01T05:08:43;7.60;63.80
12981;DHT22;6555;50.468;8.480;2023-02-01T05:13:59;7.60;63.70
12981;DHT22;6555;50.468;8.480;2023-02-01T05:19:31;7.60;63.70
12981;DHT22;6555;50.468;8.480;2023-02-01T05:24:48;7.60;64.30
12981;DHT22;6555;50.468;8.480;2023-02-01T05:30:18;7.70;63.50
12981;DHT22;6555;50.468;8.480;2023-02-01T05:35:35;7.60;63.30
12981;DHT22;6555;50.468;8.480;2023-02-01T05:41:06;7.60;63.20
12981;DHT22;6555;50.468;8.480;2023-02-01T05:46:22;7.60;63.20
12981;DHT22;6555;50.468;8.480;2023-02-01T05:51:53;7.50;63.20
12981;DHT22;6555;50.468;8.480;2023-02-01T05:57:10;7.50;63.10
12981;DHT22;6555;50.468;8.480;2023-02-01T06:02:40;7.50;63.00
12981;DHT22;6555;50.468;8.480;2023-02-01T06:07:58;7.50;62.90
12981;DHT22;6555;50.468;8.480;2023-02-01T06:13:29;7.40;62.80
12981;DHT22;6555;50.468;8.480;2023-02-01T06:18:46;7.40;62.80
12981;DHT22;6555;50.468;8.480;2023-02-01T06:24:17;7.40;62.70
12981;DHT22;6555;50.468;8.480;2023-02-01T06:29:34;7.30;62.60
12981;DHT22;6555;50.468;8.480;2023-02-01T06:35:05;7.30;62.80
12981;DHT22;6555;50.468;8.480;2023-02-01T06:40:23;7.30;62.80
12981;DHT22;6555;50.468;8.480;2023-02-01T06:45:59;7.30;62.80
12981;DHT22;6555;50.468;8.480;2023-02-01T06:51:20;7.30;62.80
12981;DHT22;6555;50.468;8.480;2023-02-01T06:56:51;7.30;62.70
12981;DHT22;6555;50.468;8.480;2023-02-01T07:02:09;7.30;62.60
12981;DHT22;6555;50.468;8.480;2023-02-01T07:07:40;7.30;62.60
12981;DHT22;6555;50.468;8.480;2023-02-01T07:12:57;7.40;62.40
12981;DHT22;6555;50.468;8.480;2023-02-01T07:18:28;7.40;62.40
12981;DHT22;6555;50.468;8.480;2023-02-01T07:23:45;7.40;62.30
12981;DHT22;6555;50.468;8.480;2023-02-01T07:29:17;7.40;62.40
12981;DHT22;6555;50.468;8.480;2023-02-01T07:34:34;7.40;62.20
12981;DHT22;6555;50.468;8.480;2023-02-01T07:40:05;7.40;62.10
12981;DHT22;6555;50.468;8.480;2023-02-01T07:45:22;7.50;62.10
12981;DHT22;6555;50.468;8.480;2023-02-01T07:51:00;7.40;62.00
12981;DHT22;6555;50.468;8.480;2023-02-01T07:56:19;7.50;61.90
12981;DHT22;6555;50.468;8.480;2023-02-01T08:01:50;7.50;61.90
12981;DHT22;6555;50.468;8.480;2023-02-01T08:07:07;7.40;61.70
12981;DHT22;6555;50.468;8.480;2023-02-01T08:12:37;7.50;61.70
12981;DHT22;6555;50.468;8.480;2023-02-01T08:17:55;7.50;61.60
12981;DHT22;6555;50.468;8.480;2023-02-01T08:23:25;7.50;61.60
12981;DHT22;6555;50.468;8.480;2023-02-01T08:28:43;7.50;61.50
12981;DHT22;6555;50.468;8.480;2023-02-01T08:34:14;7.50;61.40
12981;DHT22;6555;50.468;8.480;2023-02-01T08:39:38;7.50;61.30
12981;DHT22;6555;50.468;8.480;2023-02-01T08:45:10;7.50;61.40
12981;DHT22;6555;50.468;8.480;2023-02-01T08:50:27;7.50;61.30
12981;DHT22;6555;50.468;8.480;2023-02-01T08:55:58;7.50;61.40
12981;DHT22;6555;50.468;8.480;2023-02-01T09:01:16;7.50;61.30
12981;DHT22;6555;50.468;8.480;2023-02-01T09:06:48;7.60;61.10
12981;DHT22;6555;50.468;8.480;2023-02-01T09:12:05;7.50;61.00
12981;DHT22;6555;50.468;8.480;2023-02-01T09:17:35;7.50;61.00
12981;DHT22;6555;50.468;8.480;2023-02-01T09:22:54;7.50;60.90
12981;DHT22;6555;50.468;8.480;2023-02-01T09:28:24;7.60;61.10
12981;DHT22;6555;50.468;8.480;2023-02-01T09:33:40;7.60;61.70
12981;DHT22;6555;50.468;8.480;2023-02-01T09:39:11;7.60;61.00
12981;DHT22;6555;50.468;8.480;2023-02-01T09:44:44;7.60;60.90
12981;DHT22;6555;50.468;8.480;2023-02-01T09:50:26;7.60;60.90
12981;DHT22;6555;50.468;8.480;2023-02-01T09:55:47;7.60;60.80
12981;DHT22;6555;50.468;8.480;2023-02-01T10:01:20;7.60;60.80
12981;DHT22;6555;50.468;8.480;2023-02-01T10:06:46;7.60;60.90
12981;DHT22;6555;50.468;8.480;2023-02-01T10:12:56;7.70;61.00
12981;DHT22;6555;50.468;8.480;2023-02-01T10:18:39;7.70;61.00
12981;DHT22;6555;50.468;8.480;2023-02-01T10:24:28;7.80;60.80
12981;DHT22;6555;50.468;8.480;2023-02-01T10:29:55;7.80;60.70
12981;DHT22;6555;50.468;8.480;2023-02-01T10:35:30;7.80;60.40
12981;DHT22;6555;50.468;8.480;2023-02-01T10:40:47;7.80;60.50
12981;DHT22;6555;50.468;8.480;2023-02-01T10:46:20;7.80;60.40
12981;DHT22;6555;50.468;8.480;2023-02-01T10:51:42;7.80;60.40
12981;DHT22;6555;50.468;8.480;2023-02-01T10:57:21;7.80;60.20
12981;DHT22;6555;50.468;8.480;2023-02-01T11:02:39;7.80;60.20
12981;DHT22;6555;50.468;8.480;2023-02-01T11:08:14;7.90;60.00
12981;DHT22;6555;50.468;8.480;2023-02-01T11:13:37;7.90;59.90
12981;DHT22;6555;50.468;8.480;2023-02-01T11:19:15;7.90;60.10
12981;DHT22;6555;50.468;8.480;2023-02-01T11:24:34;8.00;59.80
12981;DHT22;6555;50.468;8.480;2023-02-01T11:30:05;8.00;59.60
12981;DHT22;6555;50.468;8.480;2023-02-01T11:35:22;8.00;59.50
12981;DHT22;6555;50.468;8.480;2023-02-01T11:40:53;8.00;59.60
12981;DHT22;6555;50.468;8.480;2023-02-01T11:46:18;8.10;59.80
12981;DHT22;6555;50.468;8.480;2023-02-01T11:51:59;8.10;59.60
12981;DHT22;6555;50.468;8.480;2023-02-01T11:57:31;8.10;59.70
12981;DHT22;6555;50.468;8.480;2023-02-01T12:03:24;8.20;59.60
12981;DHT22;6555;50.468;8.480;2023-02-01T12:09:04;8.20;59.70
12981;DHT22;6555;50.468;8.480;2023-02-01T12:14:57;8.30;59.80
12981;DHT22;6555;50.468;8.480;2023-02-01T12:26:23;8.50;59.30
12981;DHT22;6555;50.468;8.480;2023-02-01T12:31:51;8.50;59.10
12981;DHT22;6555;50.468;8.480;2023-02-01T12:37:37;8.60;58.90
12981;DHT22;6555;50.468;8.480;2023-02-01T12:43:04;8.60;58.70
12981;DHT22;6555;50.468;8.480;2023-02-01T12:48:41;8.60;58.70
12981;DHT22;6555;50.468;8.480;2023-02-01T12:54:03;8.60;58.20
12981;DHT22;6555;50.468;8.480;2023-02-01T12:59:39;8.70;58.70
12981;DHT22;6555;50.468;8.480;2023-02-01T13:05:01;8.70;58.60
12981;DHT22;6555;50.468;8.480;2023-02-01T13:10:36;8.80;58.50
12981;DHT22;6555;50.468;8.480;2023-02-01T13:16:15;8.80;58.40
12981;DHT22;6555;50.468;8.480;2023-02-01T13:21:35;8.90;58.20
12981;DHT22;6555;50.468;8.480;2023-02-01T13:27:10;8.90;57.80
12981;DHT22;6555;50.468;8.480;2023-02-01T13:32:58;8.90;57.70
12981;DHT22;6555;50.468;8.480;2023-02-01T13:39:14;8.90;57.70
12981;DHT22;6555;50.468;8.480;2023-02-01T13:44:32;8.90;57.80
12981;DHT22;6555;50.468;8.480;2023-02-01T13:50:17;8.90;57.60
12981;DHT22;6555;50.468;8.480;2023-02-01T13:55:36;9.00;57.40
12981;DHT22;6555;50.468;8.480;2023-02-01T14:07:02;9.00;57.50
12981;DHT22;6555;50.468;8.480;2023-02-01T14:12:45;9.00;57.30
12981;DHT22;6555;50.468;8.480;2023-02-01T14:24:25;9.00;57.60
12981;DHT22;6555;50.468;8.480;2023-02-01T14:29:44;9.10;57.30
12981;DHT22;6555;50.468;8.480;2023-02-01T14:35:24;9.10;57.30
12981;DHT22;6555;50.468;8.480;2023-02-01T14:40:43;9.10;57.10
12981;DHT22;6555;50.468;8.480;2023-02-01T14:46:13;9.10;57.00
12981;DHT22;6555;50.468;8.480;2023-02-01T14:51:30;9.10;57.00
12981;DHT22;6555;50.468;8.480;2023-02-01T14:57:03;9.00;57.10
12981;DHT22;6555;50.468;8.480;2023-02-01T15:02:23;9.00;57.20
12981;DHT22;6555;50.468;8.480;2023-02-01T15:07:56;8.90;57.40
12981;DHT22;6555;50.468;8.480;2023-02-01T15:13:23;8.90;57.60
12981;DHT22;6555;50.468;8.480;2023-02-01T15:19:14;8.80;57.70
12981;DHT22;6555;50.468;8.480;2023-02-01T15:24:31;8.70;57.90
12981;DHT22;6555;50.468;8.480;2023-02-01T15:30:07;8.60;58.10
12981;DHT22;6555;50.468;8.480;2023-02-01T15:35:39;8.50;58.50
12981;DHT22;6555;50.468;8.480;2023-02-01T15:41:12;8.40;58.70
12981;DHT22;6555;50.468;8.480;2023-02-01T15:46:32;8.30;59.00
12981;DHT22;6555;50.468;8.480;2023-02-01T15:52:22;8.30;59.20
12981;DHT22;6555;50.468;8.480;2023-02-01T15:57:41;8.20;59.30
12981;DHT22;6555;50.468;8.480;2023-02-01T16:03:33;8.20;59.50
12981;DHT22;6555;50.468;8.480;2023-02-01T16:08:54;8.10;59.50
12981;DHT22;6555;50.468;8.480;2023-02-01T16:14:24;8.10;59.70
12981;DHT22;6555;50.468;8.480;2023-02-01T16:19:43;8.20;59.70
12981;DHT22;6555;50.468;8.480;2023-02-01T16:25:13;8.20;59.70
12981;DHT22;6555;50.468;8.480;2023-02-01T16:30:29;8.20;59.70
12981;DHT22;6555;50.468;8.480;2023-02-01T16:36:01;8.20;59.70
12981;DHT22;6555;50.468;8.480;2023-02-01T16:41:20;8.30;59.80
12981;DHT22;6555;50.468;8.480;2023-02-01T16:46:50;8.30;59.70
12981;DHT22;6555;50.468;8.480;2023-02-01T16:52:13;8.30;59.80
12981;DHT22;6555;50.468;8.480;2023-02-01T16:57:43;8.40;59.70
12981;DHT22;6555;50.468;8.480;2023-02-01T17:03:00;8.40;59.70
12981;DHT22;6555;50.468;8.480;2023-02-01T17:08:33;8.50;59.80
12981;DHT22;6555;50.468;8.480;2023-02-01T17:13:50;8.50;59.70
12981;DHT22;6555;50.468;8.480;2023-02-01T17:19:22;8.50;59.70
12981;DHT22;6555;50.468;8.480;2023-02-01T17:24:40;8.50;59.80
12981;DHT22;6555;50.468;8.480;2023-02-01T17:30:11;8.50;59.90
12981;DHT22;6555;50.468;8.480;2023-02-01T17:35:28;8.50;60.00
12981;DHT22;6555;50.468;8.480;2023-02-01T17:41:00;8.50;60.00
12981;DHT22;6555;50.468;8.480;2023-02-01T17:46:17;8.40;60.20
12981;DHT22;6555;50.468;8.480;2023-02-01T17:51:47;8.30;60.40
12981;DHT22;6555;50.468;8.480;2023-02-01T17:57:10;8.30;60.60
12981;DHT22;6555;50.468;8.480;2023-02-01T18:02:42;8.20;60.70
12981;DHT22;6555;50.468;8.480;2023-02-01T18:07:58;8.20;61.10
12981;DHT22;6555;50.468;8.480;2023-02-01T18:13:31;8.20;61.00
12981;DHT22;6555;50.468;8.480;2023-02-01T18:18:48;8.10;61.30
12981;DHT22;6555;50.468;8.480;2023-02-01T18:24:22;8.10;61.30
12981;DHT22;6555;50.468;8.480;2023-02-01T18:29:42;8.00;61.40
12981;DHT22;6555;50.468;8.480;2023-02-01T18:35:16;8.00;61.40
12981;DHT22;6555;50.468;8.480;2023-02-01T18:40:36;8.00;61.80
12981;DHT22;6555;50.468;8.480;2023-02-01T18:46:10;8.00;61.70
12981;DHT22;6555;50.468;8.480;2023-02-01T18:51:26;8.00;61.80
12981;DHT22;6555;50.468;8.480;2023-02-01T18:56:56;8.00;61.80
12981;DHT22;6555;50.468;8.480;2023-02-01T19:02:14;8.00;62.00
12981;DHT22;6555;50.468;8.480;2023-02-01T19:07:45;8.00;62.00
12981;DHT22;6555;50.468;8.480;2023-02-01T19:13:01;8.00;62.10
12981;DHT22;6555;50.468;8.480;2023-02-01T19:18:35;8.10;62.20
12981;DHT22;6555;50.468;8.480;2023-02-01T19:23:51;8.00;62.10
12981;DHT22;6555;50.468;8.480;2023-02-01T19:29:21;8.00;62.10
12981;DHT22;6555;50.468;8.480;2023-02-01T19:34:39;8.00;62.20
12981;DHT22;6555;50.468;8.480;2023-02-01T19:40:11;8.00;62.30
12981;DHT22;6555;50.468;8.480;2023-02-01T19:45:27;8.00;62.30
12981;DHT22;6555;50.468;8.480;2023-02-01T19:50:59;8.00;63.00
12981;DHT22;6555;50.468;8.480;2023-02-01T19:56:15;8.00;62.50
12981;DHT22;6555;50.468;8.480;2023-02-01T20:01:46;8.10;62.70
12981;DHT22;6555;50.468;8.480;2023-02-01T20:07:04;8.10;62.80
12981;DHT22;6555;50.468;8.480;2023-02-01T20:12:34;8.10;62.80
12981;DHT22;6555;50.468;8.480;2023-02-01T20:17:51;8.10;62.70
12981;DHT22;6555;50.468;8.480;2023-02-01T20:23:23;8.10;62.70
12981;DHT22;6555;50.468;8.480;2023-02-01T20:28:39;8.10;62.80
12981;DHT22;6555;50.468;8.480;2023-02-01T20:34:10;8.20;62.70
12981;DHT22;6555;50.468;8.480;2023-02-01T20:39:28;8.20;62.70
12981;DHT22;6555;50.468;8.480;2023-02-01T20:44:58;8.30;62.70
12981;DHT22;6555;50.468;8.480;2023-02-01T20:50:15;8.30;62.70
12981;DHT22;6555;50.468;8.480;2023-02-01T20:55:49;8.30;62.60
12981;DHT22;6555;50.468;8.480;2023-02-01T21:01:06;8.40;62.50
12981;DHT22;6555;50.468;8.480;2023-02-01T21:06:35;8.30;62.30
12981;DHT22;6555;50.468;8.480;2023-02-01T21:11:53;8.40;62.40
12981;DHT22;6555;50.468;8.480;2023-02-01T21:17:23;8.40;62.20
12981;DHT22;6555;50.468;8.480;2023-02-01T21:22:42;8.40;62.20
12981;DHT22;6555;50.468;8.480;2023-02-01T21:28:14;8.40;62.00
12981;DHT22;6555;50.468;8.480;2023-02-01T21:33:30;8.40;62.10
12981;DHT22;6555;50.468;8.480;2023-02-01T21:39:02;8.40;62.00
12981;DHT22;6555;50.468;8.480;2023-02-01T21:44:20;8.40;62.00
12981;DHT22;6555;50.468;8.480;2023-02-01T21:49:50;8.40;62.00
12981;DHT22;6555;50.468;8.480;2023-02-01T21:55:07;8.40;61.90
12981;DHT22;6555;50.468;8.480;2023-02-01T22:00:39;8.40;61.90
12981;DHT22;6555;50.468;8.480;2023-02-01T22:06:00;8.50;61.90
12981;DHT22;6555;50.468;8.480;2023-02-01T22:11:31;8.50;61.90
12981;DHT22;6555;50.468;8.480;2023-02-01T22:16:49;8.50;61.90
12981;DHT22;6555;50.468;8.480;2023-02-01T22:22:19;8.50;62.00
12981;DHT22;6555;50.468;8.480;2023-02-01T22:27:49;8.50;62.00
12981;DHT22;6555;50.468;8.480;2023-02-01T22:33:27;8.50;62.00
12981;DHT22;6555;50.468;8.480;2023-02-01T22:38:57;8.50;61.90
12981;DHT22;6555;50.468;8.480;2023-02-01T22:44:20;8.50;62.00
12981;DHT22;6555;50.468;8.480;2023-02-01T22:49:52;8.50;62.10
12981;DHT22;6555;50.468;8.480;2023-02-01T22:55:08;8.60;62.00
12981;DHT22;6555;50.468;8.480;2023-02-01T23:00:38;8.60;61.90
12981;DHT22;6555;50.468;8.480;2023-02-01T23:05:58;8.60;61.80
12981;DHT22;6555;50.468;8.480;2023-02-01T23:11:29;8.60;61.80
12981;DHT22;6555;50.468;8.480;2023-02-01T23:16:47;8.70;61.90
12981;DHT22;6555;50.468;8.480;2023-02-01T23:22:19;8.70;61.80
12981;DHT22;6555;50.468;8.480;2023-02-01T23:27:36;8.70;61.90
12981;DHT22;6555;50.468;8.480;2023-02-01T23:33:07;8.70;61.90
12981;DHT22;6555;50.468;8.480;2023-02-01T23:38:25;8.70;61.80
12981;DHT22;6555;50.468;8.480;2023-02-01T23:43:56;8.70;61.70
12981;DHT22;6555;50.468;8.480;2023-02-01T23:49:15;8.70;61.80
12981;DHT22;6555;50.468;8.480;2023-02-01T23:54:48;8.70;61.80
